createdAt,value
2022-08-04T00:01:30.670Z,99346.44
2022-08-04T00:04:10.094Z,99344.32
2022-08-04T00:07:03.378Z,99349.79
2022-08-04T00:09:55.220Z,99344.42
2022-08-04T00:12:31.411Z,99343.95
2022-08-04T00:15:02.302Z,99339.48
2022-08-04T00:17:55.120Z,99344.19
2022-08-04T00:20:25.231Z,99344.02
2022-08-04T00:22:53.995Z,99343.14
2022-08-04T00:25:23.229Z,99343.74
2022-08-04T00:27:52.075Z,99344.61
2022-08-04T00:30:21.011Z,99345.14
2022-08-04T00:32:50.328Z,99349.35
2022-08-04T00:35:18.689Z,99349.51
2022-08-04T00:37:47.745Z,99351.16
2022-08-04T00:41:06.558Z,99349.72
2022-08-04T00:43:55.804Z,99353.85
2022-08-04T00:46:26.633Z,99352.92
2022-08-04T00:49:19.718Z,99357.83
2022-08-04T00:52:30.915Z,99353.52
2022-08-04T00:55:20.624Z,99350.47
2022-08-04T00:58:04.154Z,99348.97
2022-08-04T01:00:44.551Z,99352.17
2022-08-04T01:03:30.357Z,99351.15
2022-08-04T01:06:17.519Z,99347.39
2022-08-04T01:09:11.258Z,99350.34
2022-08-04T01:12:19.733Z,99351.56
2022-08-04T01:15:04.114Z,99352.52
2022-08-04T01:17:35.732Z,99348.70
2022-08-04T01:20:09.385Z,99348.23
2022-08-04T01:23:06.375Z,99348.20
2022-08-04T01:25:57.934Z,99347.05
2022-08-04T01:28:47.058Z,99348.54
2022-08-04T01:31:26.329Z,99342.33
2022-08-04T01:34:03.911Z,99349.33
2022-08-04T01:36:35.958Z,99351.74
2022-08-04T01:39:27.707Z,99347.71
2022-08-04T01:41:58.704Z,99345.66
2022-08-04T01:44:31.674Z,99348.42
2022-08-04T01:47:02.097Z,99348.04
2022-08-04T01:49:40.189Z,99347.45
2022-08-04T01:52:10.604Z,99348.66
2022-08-04T01:54:42.551Z,99349.02
2022-08-04T01:57:37.186Z,99343.94
2022-08-04T02:00:00.968Z,99342.76
2022-08-04T02:02:29.949Z,99341.41
2022-08-04T02:04:58.381Z,99337.86
2022-08-04T02:08:02.265Z,99335.29
2022-08-04T02:10:47.690Z,99336.79
2022-08-04T02:13:44.649Z,99338.68
2022-08-04T02:16:31.386Z,99339.62
2022-08-04T02:19:14.616Z,99341.70
2022-08-04T02:21:48.904Z,99339.09
2022-08-04T02:24:21.876Z,99337.05
2022-08-04T02:26:52.324Z,99334.13
2022-08-04T02:29:32.021Z,99331.60
2022-08-04T02:32:06.350Z,99327.13
2022-08-04T02:35:06.656Z,99326.02
2022-08-04T02:37:35.897Z,99322.48
2022-08-04T02:40:06.767Z,99321.26
2022-08-04T02:42:35.618Z,99318.33
2022-08-04T02:45:05.656Z,99323.04
2022-08-04T02:48:08.270Z,99319.23
2022-08-04T02:50:28.945Z,99315.77
2022-08-04T02:53:03.246Z,99318.64
2022-08-04T02:55:34.083Z,99320.80
2022-08-04T02:58:04.366Z,99321.67
2022-08-04T03:00:33.322Z,99321.07
2022-08-04T03:03:31.370Z,99322.46
2022-08-04T03:06:11.734Z,99322.33
2022-08-04T03:08:58.703Z,99327.11
2022-08-04T03:12:05.815Z,99325.23
2022-08-04T03:14:52.302Z,99324.02
2022-08-04T03:17:29.697Z,99326.27
2022-08-04T03:19:57.926Z,99326.13
2022-08-04T03:23:12.440Z,99326.99
2022-08-04T03:25:59.646Z,99325.45
2022-08-04T03:28:52.236Z,99326.43
2022-08-04T03:31:35.365Z,99328.38
2022-08-04T03:34:33.746Z,99330.09
2022-08-04T03:37:17.214Z,99329.04
2022-08-04T03:40:08.957Z,99328.64
2022-08-04T03:43:03.879Z,99331.73
2022-08-04T03:45:41.252Z,99335.46
2022-08-04T03:48:31.327Z,99337.38
2022-08-04T03:51:34.989Z,99336.50
2022-08-04T03:54:31.176Z,99335.59
2022-08-04T03:57:36.741Z,99337.29
2022-08-04T04:00:21.590Z,99333.11
2022-08-04T04:03:28.734Z,99334.97
2022-08-04T04:06:16.485Z,99337.89
2022-08-04T04:09:24.175Z,99338.57
2022-08-04T04:12:16.535Z,99340.70
2022-08-04T04:14:44.803Z,99343.16
2022-08-04T04:17:36.247Z,99345.95
2022-08-04T04:20:10.938Z,99347.16
2022-08-04T04:22:51.944Z,99345.75
2022-08-04T04:25:33.013Z,99344.48
2022-08-04T04:28:45.365Z,99344.27
2022-08-04T04:31:19.031Z,99343.24
2022-08-04T04:34:09.692Z,99346.23
2022-08-04T04:36:58.500Z,99342.07
2022-08-04T04:39:43.144Z,99343.89
2022-08-04T04:42:36.298Z,99344.15
2022-08-04T04:45:23.505Z,99346.98
2022-08-04T04:48:08.329Z,99350.91
2022-08-04T04:51:29.794Z,99353.27
2022-08-04T04:54:07.258Z,99357.68
2022-08-04T04:56:35.397Z,99360.65
2022-08-04T04:59:10.228Z,99359.50
2022-08-04T05:01:51.868Z,99362.93
2022-08-04T05:04:48.317Z,99363.17
2022-08-04T05:07:40.815Z,99366.57
2022-08-04T05:10:31.038Z,99365.84
2022-08-04T05:14:38.496Z,99373.21
2022-08-04T05:16:27.447Z,99373.92
2022-08-04T05:19:16.305Z,99370.95
2022-08-04T05:21:53.239Z,99371.12
2022-08-04T05:24:24.183Z,99372.58
2022-08-04T05:26:56.058Z,99370.55
2022-08-04T05:29:36.311Z,99367.71
2022-08-04T05:32:12.864Z,99361.84
2022-08-04T05:34:53.366Z,99361.64
2022-08-04T05:37:24.130Z,99362.83
2022-08-04T05:40:04.822Z,99362.52
2022-08-04T05:42:38.171Z,99366.22
2022-08-04T05:45:09.557Z,99367.35
2022-08-04T05:47:38.657Z,99370.11
2022-08-04T05:50:08.592Z,99370.04
2022-08-04T05:52:38.027Z,99372.86
2022-08-04T05:55:09.129Z,99370.10
2022-08-04T05:57:40.673Z,99373.34
2022-08-04T06:00:31.716Z,99376.20
2022-08-04T06:02:59.470Z,99377.51
2022-08-04T06:05:29.282Z,99378.92
2022-08-04T06:08:12.273Z,99376.30
2022-08-04T06:10:44.817Z,99378.87
2022-08-04T06:13:48.919Z,99381.40
2022-08-04T06:16:15.686Z,99381.27
2022-08-04T06:20:02.709Z,99382.63
2022-08-04T06:21:52.495Z,99383.95
2022-08-04T06:24:25.120Z,99385.92
2022-08-04T06:26:55.261Z,99387.34
2022-08-04T06:29:28.338Z,99387.55
2022-08-04T06:32:28.797Z,99387.77
2022-08-04T06:34:48.299Z,99386.61
2022-08-04T06:37:18.352Z,99390.64
2022-08-04T06:40:31.867Z,99391.01
2022-08-04T06:42:58.660Z,99390.62
2022-08-04T06:45:27.428Z,99392.80
2022-08-04T06:47:56.621Z,99394.31
2022-08-04T06:51:32.783Z,99393.92
2022-08-04T06:53:14.421Z,99393.80
2022-08-04T06:55:45.220Z,99395.83
2022-08-04T06:58:16.578Z,99392.70
2022-08-04T07:00:47.341Z,99388.86
2022-08-04T07:03:18.299Z,99388.98
2022-08-04T07:05:48.230Z,99390.79
2022-08-04T07:08:17.301Z,99387.61
2022-08-04T07:10:46.492Z,99390.39
2022-08-04T07:13:15.992Z,99393.29
2022-08-04T07:15:46.913Z,99393.27
2022-08-04T07:18:15.914Z,99390.56
2022-08-04T07:20:49.222Z,99392.42
2022-08-04T07:23:24.486Z,99391.33
2022-08-04T07:25:59.818Z,99393.75
2022-08-04T07:28:42.140Z,99396.13
2022-08-04T07:31:33.326Z,99395.11
2022-08-04T07:34:16.575Z,99399.98
2022-08-04T07:36:50.945Z,99398.25
2022-08-04T07:39:27.919Z,99399.49
2022-08-04T07:42:02.142Z,99397.04
2022-08-04T07:44:35.483Z,99398.05
2022-08-04T07:47:06.806Z,99395.84
2022-08-04T07:49:54.804Z,99390.84
2022-08-04T07:52:27.059Z,99389.65
2022-08-04T07:54:56.048Z,99388.53
2022-08-04T07:57:40.464Z,99390.88
2022-08-04T08:00:14.287Z,99388.64
2022-08-04T08:02:45.821Z,99381.36
2022-08-04T08:05:17.084Z,99381.98
2022-08-04T08:07:50.925Z,99381.59
2022-08-04T08:10:24.644Z,99378.65
2022-08-04T08:12:54.074Z,99380.63
2022-08-04T08:15:23.194Z,99376.23
2022-08-04T08:17:59.912Z,99379.43
2022-08-04T08:20:31.160Z,99384.95
2022-08-04T08:23:02.085Z,99386.32
2022-08-04T08:25:32.862Z,99386.25
2022-08-04T08:28:04.258Z,99384.27
2022-08-04T08:30:35.938Z,99386.37
2022-08-04T08:33:09.722Z,99384.13
2022-08-04T08:36:04.274Z,99385.71
2022-08-04T08:38:35.197Z,99385.20
2022-08-04T08:41:13.818Z,99389.63
2022-08-04T08:44:05.944Z,99388.30
2022-08-04T08:47:02.498Z,99390.34
2022-08-04T08:50:01.638Z,99392.06
2022-08-04T08:53:02.051Z,99396.73
2022-08-04T08:55:52.527Z,99398.19
2022-08-04T08:58:32.770Z,99394.02
2022-08-04T09:01:29.702Z,99396.14
2022-08-04T09:04:28.839Z,99388.31
2022-08-04T09:07:22.979Z,99395.02
2022-08-04T09:10:03.905Z,99396.48
2022-08-04T09:12:51.103Z,99389.89
2022-08-04T09:15:30.035Z,99387.20
2022-08-04T09:18:07.742Z,99391.92
2022-08-04T09:20:59.782Z,99395.54
2022-08-04T09:23:58.727Z,99392.33
2022-08-04T09:26:40.171Z,99389.08
2022-08-04T09:29:21.205Z,99388.29
2022-08-04T09:32:06.741Z,99386.54
2022-08-04T09:35:28.346Z,99387.50
2022-08-04T09:38:26.590Z,99388.12
2022-08-04T09:40:58.182Z,99390.73
2022-08-04T09:44:43.179Z,99387.36
2022-08-04T09:46:44.071Z,99383.33
2022-08-04T09:49:36.730Z,99382.50
2022-08-04T09:52:44.401Z,99382.49
2022-08-04T09:55:28.653Z,99377.67
2022-08-04T09:58:11.585Z,99378.27
2022-08-04T10:00:51.414Z,99372.45
2022-08-04T10:03:26.593Z,99372.45
2022-08-04T10:06:21.581Z,99373.51
2022-08-04T10:09:11.820Z,99372.50
2022-08-04T10:12:05.702Z,99376.55
2022-08-04T10:14:45.791Z,99372.29
2022-08-04T10:17:26.994Z,99375.75
2022-08-04T10:20:14.649Z,99376.38
2022-08-04T10:23:30.155Z,99375.79
2022-08-04T10:26:07.592Z,99380.07
2022-08-04T10:28:44.627Z,99378.91
2022-08-04T10:31:19.686Z,99370.83
2022-08-04T10:33:47.853Z,99371.65
2022-08-04T10:36:19.436Z,99370.64
2022-08-04T10:39:13.883Z,99368.11
2022-08-04T10:42:22.938Z,99364.00
2022-08-04T10:45:19.411Z,99364.97
2022-08-04T10:48:11.204Z,99360.41
2022-08-04T10:50:57.134Z,99356.30
2022-08-04T10:53:29.778Z,99353.86
2022-08-04T10:56:22.962Z,99353.89
2022-08-04T10:58:58.654Z,99353.25
2022-08-04T11:01:59.672Z,99348.88
2022-08-04T11:04:36.003Z,99345.29
2022-08-04T11:07:04.789Z,99347.64
2022-08-04T11:09:34.533Z,99347.65
2022-08-04T11:12:21.823Z,99348.48
2022-08-04T11:15:22.219Z,99344.13
2022-08-04T11:17:57.116Z,99341.58
2022-08-04T11:20:50.961Z,99344.39
2022-08-04T11:23:27.386Z,99351.41
2022-08-04T11:26:21.743Z,99351.14
2022-08-04T11:29:04.111Z,99350.34
2022-08-04T11:31:39.560Z,99348.89
2022-08-04T11:34:10.740Z,99345.89
2022-08-04T11:37:16.177Z,99341.79
2022-08-04T11:40:13.437Z,99341.08
2022-08-04T11:43:01.436Z,99339.29
2022-08-04T11:45:38.211Z,99338.56
2022-08-04T11:48:13.406Z,99339.95
2022-08-04T11:50:53.552Z,99334.52
2022-08-04T11:53:25.565Z,99337.80
2022-08-04T11:56:08.780Z,99333.38
2022-08-04T11:58:38.958Z,99330.58
2022-08-04T12:01:24.385Z,99328.98
2022-08-04T12:04:14.390Z,99327.64
2022-08-04T12:07:15.060Z,99328.66
2022-08-04T12:09:58.861Z,99324.38
2022-08-04T12:12:39.153Z,99319.77
2022-08-04T12:15:23.493Z,99311.31
2022-08-04T12:18:00.529Z,99310.96
2022-08-04T12:20:42.971Z,99309.04
2022-08-04T12:23:22.080Z,99310.14
2022-08-04T12:25:56.402Z,99310.25
2022-08-04T12:29:08.950Z,99312.94
2022-08-04T12:31:53.059Z,99313.49
2022-08-04T12:34:24.251Z,99311.32
2022-08-04T12:37:30.628Z,99303.89
2022-08-04T12:40:21.726Z,99304.44
2022-08-04T12:43:18.223Z,99297.61
2022-08-04T12:45:50.962Z,99296.36
2022-08-04T12:48:21.831Z,99297.99
2022-08-04T12:50:52.557Z,99296.49
2022-08-04T12:53:32.168Z,99294.64
2022-08-04T12:56:03.026Z,99288.47
2022-08-04T12:58:43.253Z,99285.06
2022-08-04T13:02:06.826Z,99281.88
2022-08-04T13:04:19.678Z,99281.91
2022-08-04T13:06:58.280Z,99283.48
2022-08-04T13:09:32.603Z,99280.16
2022-08-04T13:12:06.307Z,99278.89
2022-08-04T13:14:38.454Z,99268.65
2022-08-04T13:17:06.953Z,99266.91
2022-08-04T13:19:41.519Z,99266.55
2022-08-04T13:22:10.256Z,99263.56
2022-08-04T13:25:18.146Z,99264.11
2022-08-04T13:27:43.011Z,99260.38
2022-08-04T13:30:18.430Z,99257.80
2022-08-04T13:33:05.578Z,99259.13
2022-08-04T13:35:55.303Z,99257.40
2022-08-04T13:38:25.891Z,99256.45
2022-08-04T13:40:57.388Z,99254.61
2022-08-04T13:44:19.497Z,99259.79
2022-08-04T13:46:50.932Z,99257.02
2022-08-04T13:49:38.017Z,99257.39
2022-08-04T13:52:10.979Z,99255.05
2022-08-04T13:54:44.082Z,99255.55
2022-08-04T13:57:28.020Z,99255.38
2022-08-04T14:00:04.907Z,99252.51
2022-08-04T14:02:46.825Z,99250.63
2022-08-04T14:05:18.574Z,99249.69
2022-08-04T14:08:20.293Z,99248.59
2022-08-04T14:10:58.271Z,99246.11
2022-08-04T14:13:41.039Z,99245.95
2022-08-04T14:16:21.118Z,99251.45
2022-08-04T14:18:59.776Z,99247.80
2022-08-04T14:21:28.426Z,99242.76
2022-08-04T14:23:57.650Z,99244.42
2022-08-04T14:26:34.163Z,99241.80
2022-08-04T14:29:26.825Z,99238.30
2022-08-04T14:32:12.489Z,99237.89
2022-08-04T14:34:46.073Z,99233.54
2022-08-04T14:37:20.854Z,99229.34
2022-08-04T14:40:17.332Z,99228.64
2022-08-04T14:42:54.824Z,99226.22
2022-08-04T14:45:33.610Z,99223.48
2022-08-04T14:48:06.498Z,99218.38
2022-08-04T14:50:42.248Z,99217.23
2022-08-04T14:53:19.995Z,99219.65
2022-08-04T14:55:54.704Z,99219.96
2022-08-04T14:58:39.443Z,99219.41
2022-08-04T15:01:12.123Z,99216.04
2022-08-04T15:03:52.157Z,99217.86
2022-08-04T15:06:27.369Z,99215.89
2022-08-04T15:08:58.617Z,99213.52
2022-08-04T15:11:28.333Z,99212.98
2022-08-04T15:13:58.522Z,99213.48
2022-08-04T15:16:30.309Z,99215.38
2022-08-04T15:18:59.972Z,99214.83
2022-08-04T15:21:30.045Z,99213.77
2022-08-04T15:23:59.212Z,99218.63
2022-08-04T15:26:43.478Z,99216.34
2022-08-04T15:29:16.619Z,99213.23
2022-08-04T15:32:07.469Z,99213.63
2022-08-04T15:34:50.095Z,99208.26
2022-08-04T15:37:26.549Z,99211.20
2022-08-04T15:40:33.407Z,99210.11
2022-08-04T15:43:24.227Z,99207.30
2022-08-04T15:46:41.201Z,99204.56
2022-08-04T15:48:44.396Z,99207.64
2022-08-04T15:51:14.695Z,99209.27
2022-08-04T15:54:02.681Z,99205.64
2022-08-04T15:56:32.268Z,99201.81
2022-08-04T15:59:00.497Z,99202.66
2022-08-04T16:01:28.754Z,99207.05
2022-08-04T16:03:59.934Z,99205.22
2022-08-04T16:06:30.611Z,99205.52
2022-08-04T16:09:02.196Z,99201.73
2022-08-04T16:11:32.749Z,99199.20
2022-08-04T16:14:01.779Z,99194.01
2022-08-04T16:16:50.419Z,99190.73
2022-08-04T16:19:52.084Z,99191.61
2022-08-04T16:22:38.197Z,99190.48
2022-08-04T16:25:08.819Z,99187.67
2022-08-04T16:27:42.992Z,99189.52
2022-08-04T16:30:15.246Z,99189.21
2022-08-04T16:32:46.315Z,99191.36
2022-08-04T16:35:26.490Z,99191.00
2022-08-04T16:38:12.791Z,99188.60
2022-08-04T16:40:46.181Z,99186.58
2022-08-04T16:43:17.268Z,99186.16
2022-08-04T16:45:54.672Z,99184.83
2022-08-04T16:48:27.071Z,99183.50
2022-08-04T16:51:07.731Z,99183.47
2022-08-04T16:53:57.955Z,99186.71
2022-08-04T16:56:35.199Z,99185.46
2022-08-04T16:59:12.767Z,99189.09
2022-08-04T17:01:50.366Z,99185.73
2022-08-04T17:04:28.060Z,99187.20
2022-08-04T17:07:01.400Z,99188.97
2022-08-04T17:09:30.123Z,99187.33
2022-08-04T17:12:02.278Z,99188.39
2022-08-04T17:14:31.687Z,99188.52
2022-08-04T17:17:02.247Z,99188.74
2022-08-04T17:19:30.622Z,99197.63
2022-08-04T17:22:14.628Z,99192.48
2022-08-04T17:24:43.410Z,99194.77
2022-08-04T17:28:20.051Z,99191.67
2022-08-04T17:30:00.639Z,99195.17
2022-08-04T17:32:29.009Z,99193.88
2022-08-04T17:35:00.396Z,99192.17
2022-08-04T17:37:41.263Z,99192.52
2022-08-04T17:40:25.530Z,99189.95
2022-08-04T17:44:05.321Z,99187.88
2022-08-04T17:46:29.107Z,99189.52
2022-08-04T17:49:16.963Z,99191.77
2022-08-04T17:52:04.321Z,99188.91
2022-08-04T17:54:41.020Z,99188.75
2022-08-04T17:57:21.962Z,99187.67
2022-08-04T17:59:58.796Z,99187.58
2022-08-04T18:02:32.227Z,99194.90
2022-08-04T18:05:07.391Z,99198.00
2022-08-04T18:08:37.645Z,99199.77
2022-08-04T18:10:55.370Z,99198.65
2022-08-04T18:13:26.433Z,99203.38
2022-08-04T18:16:03.305Z,99200.98
2022-08-04T18:18:31.855Z,99207.91
2022-08-04T18:21:03.159Z,99207.96
2022-08-04T18:23:33.529Z,99213.66
2022-08-04T18:26:03.814Z,99217.61
2022-08-04T18:28:33.801Z,99219.02
2022-08-04T18:31:02.457Z,99224.05
2022-08-04T18:33:39.442Z,99225.13
2022-08-04T18:36:36.748Z,99224.30
2022-08-04T18:39:13.239Z,99224.55
2022-08-04T18:42:02.056Z,99230.52
2022-08-04T18:44:51.741Z,99227.64
2022-08-04T18:47:23.537Z,99227.38
2022-08-04T18:50:58.861Z,99226.50
2022-08-04T18:52:42.131Z,99230.41
2022-08-04T18:55:51.612Z,99230.88
2022-08-04T18:58:07.190Z,99229.52
2022-08-04T19:00:45.389Z,99229.48
2022-08-04T19:06:03.389Z,99236.69
2022-08-04T19:08:33.326Z,99235.39
2022-08-04T19:11:22.011Z,99230.71
2022-08-04T19:13:57.989Z,99234.41
2022-08-04T19:16:31.787Z,99232.57
2022-08-04T19:19:03.668Z,99231.70
2022-08-04T19:21:59.321Z,99237.33
2022-08-04T19:24:32.692Z,99235.23
2022-08-04T19:27:08.071Z,99233.73
2022-08-04T19:29:40.549Z,99235.54
2022-08-04T19:32:13.883Z,99237.89
2022-08-04T19:34:46.318Z,99230.91
2022-08-04T19:37:57.156Z,99228.42
2022-08-04T19:40:10.197Z,99226.91
2022-08-04T19:42:40.318Z,99226.48
2022-08-04T19:45:15.830Z,99226.18
2022-08-04T19:48:18.297Z,99228.10
2022-08-04T19:50:35.206Z,99225.30
2022-08-04T19:53:18.963Z,99225.23
2022-08-04T19:55:50.058Z,99228.21
2022-08-04T19:58:26.060Z,99232.05
2022-08-04T20:00:55.554Z,99231.16
2022-08-04T20:04:09.697Z,99233.42
2022-08-04T20:06:13.052Z,99233.36
2022-08-04T20:08:48.533Z,99234.46
2022-08-04T20:11:30.250Z,99228.20
2022-08-04T20:13:58.548Z,99228.39
2022-08-04T20:16:29.801Z,99230.64
2022-08-04T20:19:03.352Z,99229.04
2022-08-04T20:21:53.630Z,99231.22
2022-08-04T20:24:38.644Z,99233.64
2022-08-04T20:27:15.830Z,99229.76
2022-08-04T20:29:48.587Z,99231.02
2022-08-04T20:32:22.560Z,99231.18
2022-08-04T20:34:52.993Z,99229.30
2022-08-04T20:37:25.720Z,99229.37
2022-08-04T20:40:14.735Z,99229.55
2022-08-04T20:45:31.799Z,99232.63
2022-08-04T20:48:20.189Z,99231.50
2022-08-04T20:50:53.982Z,99231.46
2022-08-04T20:53:46.881Z,99231.34
2022-08-04T20:56:10.785Z,99232.80
2022-08-04T20:58:47.775Z,99232.31
2022-08-04T21:01:16.301Z,99234.85
2022-08-04T21:04:03.403Z,99232.58
2022-08-04T21:06:31.777Z,99231.05
2022-08-04T21:09:01.149Z,99231.99
2022-08-04T21:11:38.090Z,99236.33
2022-08-04T21:14:11.980Z,99237.08
2022-08-04T21:16:54.198Z,99231.61
2022-08-04T21:19:26.968Z,99231.55
2022-08-04T21:21:55.456Z,99229.01
2022-08-04T21:24:26.149Z,99228.65
2022-08-04T21:26:57.218Z,99228.89
2022-08-04T21:29:34.899Z,99227.56
2022-08-04T21:32:07.572Z,99228.83
2022-08-04T21:34:39.618Z,99226.81
2022-08-04T21:37:11.288Z,99225.32
2022-08-04T21:39:43.898Z,99225.99
2022-08-04T21:42:27.920Z,99226.86
2022-08-04T21:44:58.867Z,99225.39
2022-08-04T21:47:45.733Z,99225.55
2022-08-04T21:50:14.575Z,99225.23
2022-08-04T21:56:06.132Z,99220.27
2022-08-04T22:01:14.520Z,99222.20
2022-08-04T22:04:02.839Z,99220.63
2022-08-04T22:06:31.104Z,99217.95
2022-08-04T22:08:59.370Z,99220.42
2022-08-04T22:11:49.244Z,99220.39
2022-08-04T22:14:29.060Z,99219.81
2022-08-04T22:17:04.145Z,99219.83
2022-08-04T22:22:26.175Z,99221.48
2022-08-04T22:24:58.776Z,99218.68
2022-08-04T22:27:47.331Z,99219.83
2022-08-04T22:30:17.997Z,99217.23
2022-08-04T22:32:47.407Z,99218.56
2022-08-04T22:35:36.152Z,99214.85
2022-08-04T22:38:24.031Z,99217.21
2022-08-04T22:41:03.000Z,99214.41
2022-08-04T22:43:34.401Z,99211.73
2022-08-04T22:46:27.919Z,99208.95
2022-08-04T22:48:56.901Z,99206.54
2022-08-04T22:51:27.021Z,99204.06
2022-08-04T22:53:55.739Z,99205.68
2022-08-04T22:56:37.728Z,99205.66
2022-08-04T22:59:11.036Z,99202.31
2022-08-04T23:02:00.011Z,99197.75
2022-08-04T23:04:32.662Z,99196.30
2022-08-04T23:07:08.902Z,99193.87
2022-08-04T23:09:49.837Z,99192.94
2022-08-04T23:12:25.948Z,99188.94
2022-08-04T23:14:57.306Z,99186.14
2022-08-04T23:17:28.190Z,99183.69
2022-08-04T23:19:59.680Z,99180.98
2022-08-04T23:22:42.153Z,99178.56
2022-08-04T23:25:16.476Z,99177.73
2022-08-04T23:27:51.187Z,99175.67
2022-08-04T23:30:29.433Z,99167.38
2022-08-04T23:32:58.757Z,99165.02
2022-08-04T23:35:27.683Z,99166.95
2022-08-04T23:37:58.073Z,99166.86
2022-08-04T23:40:34.095Z,99163.53
2022-08-04T23:43:12.174Z,99159.42
2022-08-04T23:46:07.004Z,99158.38
2022-08-04T23:48:36.790Z,99159.28
2022-08-04T23:51:15.001Z,99157.98
2022-08-04T23:54:01.638Z,99156.48
2022-08-04T23:56:34.152Z,99152.48
2022-08-04T23:59:04.548Z,99149.28
